createdAt,value
2018-01-06T13:46:35.632Z,4.13
2018-01-06T13:49:03.906Z,4.90
2018-01-06T13:51:32.248Z,5.23
2018-01-06T13:54:00.572Z,4.87
2018-01-06T13:56:28.890Z,5.30
2018-01-06T13:58:57.388Z,5.10
2018-01-06T14:01:25.666Z,4.40
2018-01-06T14:03:53.957Z,4.73
2018-01-06T14:06:22.251Z,7.43
2018-01-06T14:08:50.531Z,5.90
2018-01-06T14:11:18.874Z,5.10
2018-01-06T14:13:47.173Z,4.93
2018-01-06T14:16:15.464Z,4.87
2018-01-06T14:18:45.052Z,5.57
2018-01-06T14:21:13.696Z,5.07
2018-01-06T14:23:42.017Z,4.73
2018-01-06T14:26:10.406Z,4.90
2018-01-06T14:28:38.680Z,4.73
2018-01-06T14:31:06.981Z,3.70
2018-01-06T14:33:35.245Z,4.50
2018-01-06T14:37:06.350Z,4.30
2018-01-06T14:39:34.994Z,4.20
2018-01-06T14:42:03.325Z,4.70
2018-01-06T14:44:31.669Z,5.10
2018-01-06T14:46:59.964Z,4.70
2018-01-06T14:49:28.234Z,3.70
2018-01-06T14:51:56.601Z,4.43
2018-01-06T14:54:24.881Z,4.63
2018-01-06T14:56:53.189Z,4.43
2018-01-06T14:59:21.482Z,6.10
2018-01-06T15:01:49.898Z,5.30
2018-01-06T15:04:18.183Z,5.40
2018-01-06T15:06:46.457Z,6.20
2018-01-06T15:09:14.782Z,3.90
2018-01-06T15:11:43.113Z,5.53
2018-01-06T15:14:11.463Z,4.17
2018-01-06T15:16:39.961Z,5.17
2018-01-06T15:19:08.209Z,5.57
2018-01-06T15:21:36.667Z,4.83
2018-01-06T15:24:04.964Z,5.97
2018-01-06T15:26:33.269Z,7.27
2018-01-06T15:29:01.681Z,6.50
2018-01-06T15:31:29.981Z,5.70
2018-01-06T15:33:58.221Z,6.43
2018-01-06T15:36:26.513Z,7.13
2018-01-06T15:38:56.037Z,6.57
2018-01-06T15:41:24.505Z,5.30
2018-01-06T15:43:52.797Z,5.77
2018-01-06T15:46:21.158Z,6.57
2018-01-06T15:48:49.514Z,5.50
2018-01-06T15:51:18.048Z,4.90
2018-01-06T15:53:46.329Z,5.30
2018-01-06T15:56:14.785Z,6.07
2018-01-06T15:58:43.075Z,5.73
2018-01-06T16:01:11.411Z,5.57
2018-01-06T16:03:46.365Z,5.30
2018-01-06T16:06:14.684Z,6.17
2018-01-06T16:08:42.945Z,5.30
2018-01-06T16:11:11.295Z,5.27
2018-01-06T16:13:39.596Z,6.63
2018-01-06T16:16:07.898Z,6.80
2018-01-06T16:18:36.176Z,7.60
2018-01-06T16:21:04.474Z,7.00
2018-01-06T16:23:32.748Z,8.07
2018-01-06T16:26:01.061Z,5.80
2018-01-06T16:28:29.413Z,10.03
2018-01-06T16:30:57.846Z,11.13
2018-01-06T16:33:26.270Z,7.40
2018-01-06T16:35:54.578Z,9.70
2018-01-06T16:38:22.883Z,10.00
2018-01-06T16:40:51.381Z,14.87
2018-01-06T16:43:19.666Z,14.20
2018-01-06T16:45:48.126Z,16.13
2018-01-06T16:48:16.941Z,13.93
2018-01-06T16:50:45.275Z,9.47
2018-01-06T16:53:13.606Z,10.93
2018-01-06T16:55:42.072Z,11.50
2018-01-06T16:58:10.409Z,10.30
2018-01-06T17:00:38.689Z,9.53
2018-01-06T17:03:07.152Z,13.17
2018-01-06T17:05:35.918Z,12.10
2018-01-06T17:08:04.210Z,14.23
2018-01-06T17:10:32.485Z,12.90
2018-01-06T17:13:01.014Z,13.03
2018-01-06T17:15:29.326Z,14.77
2018-01-06T17:17:57.941Z,12.97
2018-01-06T17:20:26.338Z,12.50
2018-01-06T17:22:54.604Z,13.53
2018-01-06T17:25:22.989Z,14.53
2018-01-06T17:27:51.716Z,15.30
2018-01-06T17:30:20.021Z,15.63
2018-01-06T17:32:48.310Z,15.53
2018-01-06T17:35:16.630Z,14.23
2018-01-06T17:37:44.928Z,14.60
2018-01-06T17:40:13.241Z,13.20
2018-01-06T17:42:41.717Z,16.07
2018-01-06T17:45:10.061Z,15.67
2018-01-06T17:47:38.506Z,16.40
2018-01-06T17:50:06.806Z,14.90
2018-01-06T17:52:35.085Z,14.77
2018-01-06T17:55:03.398Z,15.63
2018-01-06T17:57:31.965Z,15.80
2018-01-06T18:00:00.236Z,15.40
2018-01-06T18:02:28.784Z,16.00
2018-01-06T18:04:57.064Z,16.00
2018-01-06T18:07:25.390Z,17.87
2018-01-06T18:09:53.742Z,16.17
2018-01-06T18:12:22.073Z,16.00
2018-01-06T18:14:50.724Z,17.40
2018-01-06T18:17:18.932Z,16.20
2018-01-06T18:19:47.414Z,15.60
2018-01-06T18:22:15.747Z,16.80
2018-01-06T18:24:44.044Z,17.97
2018-01-06T18:27:12.530Z,17.83
2018-01-06T18:29:40.853Z,18.50
2018-01-06T18:32:09.256Z,18.20
2018-01-06T18:34:37.552Z,19.10
2018-01-06T18:37:05.993Z,17.90
2018-01-06T18:39:34.513Z,19.50
2018-01-06T18:42:02.844Z,16.40
2018-01-06T18:44:31.201Z,17.40
2018-01-06T18:46:59.552Z,18.20
2018-01-06T18:49:28.033Z,21.00
2018-01-06T18:51:56.806Z,17.00
2018-01-06T18:54:31.851Z,21.63
2018-01-06T18:57:00.162Z,20.10
2018-01-06T18:59:28.420Z,19.93
2018-01-06T19:01:56.745Z,21.30
2018-01-06T19:04:25.241Z,22.77
2018-01-06T19:06:53.532Z,19.50
2018-01-06T19:09:22.851Z,18.80
2018-01-06T19:11:51.349Z,18.40
2018-01-06T19:14:19.674Z,26.57
2018-01-06T19:16:47.964Z,20.93
2018-01-06T19:19:16.248Z,19.97
2018-01-06T19:21:44.538Z,18.67
2018-01-06T19:24:13.820Z,21.60
2018-01-06T19:26:42.158Z,23.57
2018-01-06T19:29:10.468Z,20.80
2018-01-06T19:31:38.833Z,21.80
2018-01-06T19:34:07.108Z,25.83
2018-01-06T19:36:35.438Z,21.47
2018-01-06T19:39:03.778Z,23.10
2018-01-06T19:41:32.090Z,18.73
2018-01-06T19:44:00.532Z,20.87
2018-01-06T19:46:28.940Z,25.37
2018-01-06T19:48:57.424Z,24.80
2018-01-06T19:51:25.714Z,24.47
2018-01-06T19:53:53.989Z,24.77
2018-01-06T19:56:22.303Z,24.77
2018-01-06T19:58:50.678Z,25.70
2018-01-06T20:01:18.993Z,28.40
2018-01-06T20:03:47.542Z,29.97
2018-01-06T20:06:15.850Z,25.10
2018-01-06T20:08:44.197Z,25.67
2018-01-06T20:11:12.499Z,28.50
2018-01-06T20:13:40.786Z,29.93
2018-01-06T20:16:09.184Z,29.97
2018-01-06T20:18:37.643Z,28.37
2018-01-06T20:21:06.091Z,28.57
2018-01-06T20:23:34.345Z,30.80
2018-01-06T20:26:02.877Z,29.97
2018-01-06T20:28:33.126Z,28.90
2018-01-06T20:31:01.435Z,30.83
2018-01-06T20:33:29.744Z,29.77
2018-01-06T20:35:58.079Z,31.47
2018-01-06T20:38:26.626Z,28.30
2018-01-06T20:40:54.973Z,29.10
2018-01-06T20:43:23.253Z,27.30
2018-01-06T20:45:51.572Z,29.60
2018-01-06T20:48:19.977Z,27.00
2018-01-06T20:50:48.301Z,31.23
2018-01-06T20:53:16.590Z,28.67
2018-01-06T20:55:44.901Z,27.60
2018-01-06T20:58:13.250Z,27.73
2018-01-06T21:00:41.624Z,30.00
2018-01-06T21:03:10.153Z,27.60
2018-01-06T21:05:38.478Z,25.57
2018-01-06T21:08:06.809Z,27.27
2018-01-06T21:10:35.181Z,27.97
2018-01-06T21:13:03.459Z,25.80
2018-01-06T21:15:31.893Z,29.50
2018-01-06T21:18:00.189Z,27.97
2018-01-06T21:20:28.485Z,27.70
2018-01-06T21:22:56.781Z,24.37
2018-01-06T21:25:25.192Z,23.13
2018-01-06T21:27:53.457Z,20.50
2018-01-06T21:30:21.754Z,21.47
2018-01-06T21:32:50.048Z,19.70
2018-01-06T21:35:18.503Z,18.90
2018-01-06T21:37:46.957Z,19.00
2018-01-06T21:40:15.262Z,17.43
2018-01-06T21:42:44.371Z,15.83
2018-01-06T21:45:12.679Z,15.70
2018-01-06T21:47:41.029Z,14.87
2018-01-06T21:50:09.346Z,14.53
2018-01-06T21:52:37.657Z,15.70
2018-01-06T21:55:05.972Z,13.50
2018-01-06T21:57:34.277Z,14.83
2018-01-06T22:00:02.526Z,14.47
2018-01-06T22:02:30.874Z,12.67
2018-01-06T22:04:59.180Z,13.80
2018-01-06T22:07:27.507Z,13.43
2018-01-06T22:09:55.776Z,13.30
2018-01-06T22:12:24.132Z,14.37
2018-01-06T22:14:52.387Z,13.80
2018-01-06T22:17:20.762Z,13.60
2018-01-06T22:19:49.058Z,12.87
2018-01-06T22:22:17.387Z,13.13
2018-01-06T22:24:45.848Z,12.83
2018-01-06T22:27:14.176Z,12.27
2018-01-06T22:29:42.444Z,12.90
2018-01-06T22:32:11.195Z,13.67
2018-01-06T22:34:39.513Z,12.63
2018-01-06T22:37:07.812Z,11.53
2018-01-06T22:39:36.117Z,12.97
2018-01-06T22:42:04.430Z,12.80
2018-01-06T22:44:32.724Z,11.77
2018-01-06T22:47:01.009Z,12.53
2018-01-06T22:49:29.339Z,10.70
2018-01-06T22:51:57.729Z,9.50
2018-01-06T22:54:26.996Z,8.93
2018-01-06T22:56:55.986Z,8.97
2018-01-06T22:59:24.437Z,8.70
2018-01-06T23:01:52.744Z,8.17
2018-01-06T23:04:21.121Z,7.60
2018-01-06T23:06:49.436Z,7.57
2018-01-06T23:09:17.708Z,7.90
2018-01-06T23:11:46.002Z,6.50
2018-01-06T23:14:14.338Z,7.07
2018-01-06T23:16:42.761Z,6.47
2018-01-06T23:19:11.025Z,6.50
2018-01-06T23:21:39.370Z,6.07
2018-01-06T23:24:07.663Z,6.50
2018-01-06T23:26:36.046Z,5.53
2018-01-06T23:29:04.510Z,5.73
2018-01-06T23:31:33.535Z,5.30
2018-01-06T23:34:01.801Z,6.07
2018-01-06T23:36:30.164Z,5.63
2018-01-06T23:38:58.444Z,5.43
2018-01-06T23:41:26.724Z,4.97
2018-01-06T23:43:54.980Z,4.80
2018-01-06T23:46:23.273Z,5.10
2018-01-06T23:48:51.590Z,5.33
2018-01-06T23:51:19.981Z,4.73
2018-01-06T23:53:48.297Z,4.10
2018-01-06T23:56:16.626Z,4.20
2018-01-06T23:58:44.952Z,4.10
